Time;durP1;ratioP1;P1;durP2;ratioP2;P2;SDS_P1;SDS_P2;PMS_P1;PMS_P2;Temp;Humidity;BMP_temperature;BMP_pressure;BME280_temperature;BME280_humidity;BME280_pressure;Samples;Min_cycle;Max_cycle;Signal;HPM_P1;HPM_P2
2021/11/02 00:01:35;;;;;;;7.97;4.77;;;8.50;99.90;;;;;;5066348;28;20449;-71
2021/11/02 00:04:02;;;;;;;8.17;4.57;;;8.50;99.90;;;;;;5048084;28;20465;-70
2021/11/02 00:06:28;;;;;;;6.53;3.77;;;8.50;99.90;;;;;;5059851;28;20515;-71
2021/11/02 00:08:53;;;;;;;4.63;3.83;;;8.50;99.90;;;;;;5047495;28;20242;-72
2021/11/02 00:11:19;;;;;;;5.77;4.30;;;8.50;99.90;;;;;;5046565;28;20223;-72
2021/11/02 00:13:47;;;;;;;5.07;3.37;;;8.50;99.90;;;;;;5046012;28;21033;-72
2021/11/02 00:16:16;;;;;;;4.17;3.23;;;8.50;99.90;;;;;;5028858;28;20224;-72
2021/11/02 00:18:51;;;;;;;2.60;2.27;;;8.40;99.90;;;;;;5026630;28;20471;-72
2021/11/02 00:21:17;;;;;;;3.77;3.20;;;8.40;99.90;;;;;;5059075;28;20466;-71
2021/11/02 00:23:43;;;;;;;4.40;3.13;;;8.40;99.90;;;;;;5078568;28;20465;-72
2021/11/02 00:26:12;;;;;;;5.20;3.43;;;8.40;99.90;;;;;;5061970;28;20537;-72
2021/11/02 00:28:39;;;;;;;5.63;3.87;;;8.40;99.90;;;;;;5066323;28;20250;-70
2021/11/02 00:31:05;;;;;;;7.77;4.40;;;8.40;99.90;;;;;;5037334;28;20964;-73
2021/11/02 00:33:31;;;;;;;5.97;4.10;;;8.40;99.90;;;;;;5063429;28;20476;-70
2021/11/02 00:35:57;;;;;;;5.40;3.57;;;8.40;99.90;;;;;;5038370;28;20219;-72
2021/11/02 00:38:24;;;;;;;6.13;4.00;;;8.40;99.90;;;;;;5063761;28;20826;-71
2021/11/02 00:40:50;;;;;;;8.67;4.90;;;8.40;99.90;;;;;;5067157;28;20480;-72
2021/11/02 00:43:16;;;;;;;5.90;4.03;;;8.40;99.90;;;;;;5054208;28;20540;-72
2021/11/02 00:45:44;;;;;;;6.13;4.53;;;8.40;99.90;;;;;;5057552;28;20234;-71
2021/11/02 00:48:12;;;;;;;3.70;3.40;;;8.40;99.90;;;;;;5065188;28;20214;-72
2021/11/02 00:50:41;;;;;;;4.80;3.20;;;8.30;99.90;;;;;;5049362;28;20461;-71
2021/11/02 00:53:07;;;;;;;2.83;2.47;;;8.20;99.90;;;;;;5063536;28;20453;-71
2021/11/02 00:55:34;;;;;;;2.43;2.13;;;8.10;99.90;;;;;;5058626;28;20454;-68
2021/11/02 00:58:02;;;;;;;3.97;2.00;;;8.10;99.90;;;;;;5050172;28;20481;-72
2021/11/02 01:00:28;;;;;;;5.83;2.10;;;8.20;99.90;;;;;;5037748;28;20489;-72
2021/11/02 01:02:54;;;;;;;1.80;1.70;;;8.20;99.90;;;;;;5048820;28;20464;-72
2021/11/02 01:05:21;;;;;;;1.90;1.70;;;8.20;99.90;;;;;;5049937;28;20462;-71
2021/11/02 01:07:47;;;;;;;1.90;1.70;;;8.20;99.90;;;;;;5056634;28;20463;-71
2021/11/02 01:10:17;;;;;;;2.30;1.67;;;8.20;99.90;;;;;;5056041;28;20361;-71
2021/11/02 01:12:47;;;;;;;1.60;1.50;;;8.20;99.90;;;;;;5047969;28;20554;-71
2021/11/02 01:15:17;;;;;;;3.37;1.80;;;8.20;99.90;;;;;;5048166;28;20470;-71
2021/11/02 01:17:43;;;;;;;2.73;2.00;;;8.20;99.90;;;;;;5062394;28;20474;-71
2021/11/02 01:20:11;;;;;;;2.53;2.33;;;8.20;99.90;;;;;;5048009;28;20611;-71
2021/11/02 01:22:38;;;;;;;3.10;2.50;;;8.20;99.90;;;;;;5052724;28;21050;-72
2021/11/02 01:25:07;;;;;;;3.90;3.10;;;8.20;99.90;;;;;;5063652;28;20458;-72
2021/11/02 01:27:34;;;;;;;4.80;3.13;;;8.10;99.90;;;;;;5062699;28;20468;-70
2021/11/02 01:30:00;;;;;;;4.57;3.90;;;8.10;99.90;;;;;;5059249;28;20453;-72
2021/11/02 01:32:29;;;;;;;3.70;2.97;;;8.10;99.90;;;;;;5066472;28;20966;-72
2021/11/02 01:34:54;;;;;;;4.87;3.17;;;8.10;99.90;;;;;;5061056;28;20531;-72
2021/11/02 01:37:22;;;;;;;3.83;3.47;;;8.10;99.90;;;;;;5041656;28;20215;-72
2021/11/02 01:39:48;;;;;;;4.27;3.00;;;8.10;99.90;;;;;;5067713;28;20453;-71
2021/11/02 01:42:14;;;;;;;2.80;2.30;;;8.10;99.90;;;;;;5050769;28;20453;-71
2021/11/02 01:44:41;;;;;;;3.70;2.50;;;8.10;99.90;;;;;;5051662;28;20979;-71
2021/11/02 01:47:08;;;;;;;4.10;3.13;;;8.10;99.90;;;;;;5072612;28;20462;-70
2021/11/02 01:49:37;;;;;;;2.70;1.90;;;8.10;99.90;;;;;;5030021;28;20508;-72
2021/11/02 01:52:04;;;;;;;3.20;1.97;;;8.10;99.90;;;;;;5057120;28;20464;-71
2021/11/02 01:54:31;;;;;;;5.23;2.40;;;8.10;99.90;;;;;;5063691;28;20465;-71
2021/11/02 01:56:59;;;;;;;3.03;1.93;;;8.10;99.90;;;;;;5067291;28;20982;-71
2021/11/02 01:59:27;;;;;;;2.23;2.03;;;8.10;99.90;;;;;;5048330;28;20449;-71
2021/11/02 02:02:20;;;;;;;2.77;1.77;;;8.10;99.90;;;;;;5057336;28;20454;-72
2021/11/02 02:05:11;;;;;;;2.23;2.00;;;8.10;99.90;;;;;;5066442;28;20815;-71
2021/11/02 02:07:53;;;;;;;3.13;2.60;;;8.10;99.90;;;;;;5067311;28;20445;-72
2021/11/02 02:10:32;;;;;;;8.50;4.00;;;8.10;99.90;;;;;;5047997;28;20477;-72
2021/11/02 02:13:05;;;;;;;2.83;2.50;;;8.10;99.90;;;;;;5064517;28;20823;-72
2021/11/02 02:15:43;;;;;;;3.50;2.37;;;8.10;99.90;;;;;;5059191;28;20823;-71
2021/11/02 02:18:14;;;;;;;2.20;2.00;;;8.10;99.90;;;;;;5031074;28;20474;-71
2021/11/02 02:20:59;;;;;;;2.57;1.80;;;8.10;99.90;;;;;;5045821;28;20990;-71
2021/11/02 02:23:27;;;;;;;1.93;1.77;;;8.10;99.90;;;;;;5058982;28;20977;-72
2021/11/02 02:26:16;;;;;;;2.10;1.63;;;8.10;99.90;;;;;;5060993;28;20454;-71
2021/11/02 02:28:44;;;;;;;1.83;1.70;;;8.10;99.90;;;;;;5057472;28;20456;-72
2021/11/02 02:31:16;;;;;;;4.27;2.20;;;8.10;99.90;;;;;;5064013;28;20468;-72
2021/11/02 02:33:47;;;;;;;2.03;1.80;;;8.10;99.90;;;;;;5056863;28;20453;-72
2021/11/02 02:36:27;;;;;;;3.30;1.80;;;8.10;99.90;;;;;;5065748;28;20540;-72
2021/11/02 02:39:03;;;;;;;2.13;1.90;;;8.10;99.90;;;;;;5066942;28;20518;-72
2021/11/02 02:41:32;;;;;;;2.40;2.17;;;8.10;99.90;;;;;;5055601;28;20493;-71
2021/11/02 02:43:59;;;;;;;2.03;1.93;;;8.10;99.90;;;;;;5029675;28;20466;-72
2021/11/02 02:46:27;;;;;;;3.20;1.53;;;8.10;99.90;;;;;;5050175;28;20454;-71
2021/11/02 02:48:56;;;;;;;1.83;1.70;;;8.10;99.90;;;;;;5067020;28;20464;-71
2021/11/02 02:51:23;;;;;;;12.17;2.03;;;8.10;99.90;;;;;;5065404;28;20460;-72
2021/11/02 02:53:52;;;;;;;1.97;1.70;;;8.10;99.90;;;;;;5062534;28;20991;-71
2021/11/02 02:56:19;;;;;;;2.50;1.70;;;8.10;99.90;;;;;;5058443;28;20465;-70
2021/11/02 02:58:48;;;;;;;3.83;2.00;;;8.10;99.90;;;;;;5066645;28;20473;-71
2021/11/02 03:01:16;;;;;;;1.50;1.40;;;8.20;99.90;;;;;;5066574;28;20458;-72
2021/11/02 03:03:56;;;;;;;2.10;1.83;;;8.20;99.90;;;;;;5060446;28;20560;-72
2021/11/02 03:06:25;;;;;;;2.43;1.97;;;8.20;99.90;;;;;;5025333;28;20462;-71
2021/11/02 03:08:53;;;;;;;3.00;2.20;;;8.20;99.90;;;;;;5043661;28;20542;-71
2021/11/02 03:11:20;;;;;;;5.20;2.30;;;8.10;99.90;;;;;;5029453;28;20574;-71
2021/11/02 03:13:50;;;;;;;5.43;2.63;;;8.20;99.90;;;;;;5052953;28;20458;-71
2021/11/02 03:16:21;;;;;;;3.10;2.70;;;8.20;99.90;;;;;;5026814;28;20831;-71
2021/11/02 03:49:59;;;;;;;1.80;1.70;;;8.30;99.90;;;;;;5039350;28;20473;-71
2021/11/02 03:55:00;;;;;;;2.17;1.67;;;8.30;99.90;;;;;;5048742;28;20843;-72
2021/11/02 04:33:46;;;;;;;2.13;1.97;;;8.40;99.90;;;;;;5054321;28;20537;-72
2021/11/02 04:42:39;;;;;;;3.10;1.90;;;8.40;99.90;;;;;;5061944;28;20458;-72
2021/11/02 05:46:45;;;;;;;3.57;2.40;;;8.40;99.90;;;;;;5066754;28;21092;-72
2021/11/02 05:47:26;;;;;;;;;;;;;;;;;;;;;
2021/11/02 05:59:59;;;;;;;2.73;2.53;;;8.40;99.90;;;;;;5060407;28;20480;-72
2021/11/02 06:08:24;;;;;;;2.67;2.43;;;8.30;99.90;;;;;;5060783;28;21036;-72
2021/11/02 06:30:30;;;;;;;5.90;4.40;;;8.20;99.90;;;;;;5066596;28;20460;-72
2021/11/02 06:33:17;;;;;;;5.67;4.57;;;8.30;99.90;;;;;;5050347;28;20475;-71
2021/11/02 06:35:59;;;;;;;5.10;4.60;;;8.20;99.90;;;;;;5068003;28;20461;-71
2021/11/02 06:47:02;;;;;;;5.13;4.30;;;8.20;99.90;;;;;;5067756;28;20452;-72
2021/11/02 07:17:22;;;;;;;5.97;3.80;;;8.10;99.90;;;;;;5072006;28;20954;-72
2021/11/02 07:27:28;;;;;;;3.83;3.13;;;8.10;99.90;;;;;;5072353;28;20442;-72
2021/11/02 08:47:56;;;;;;;4.70;3.77;;;9.50;99.90;;;;;;5069914;28;20448;-71
2021/11/02 08:50:22;;;;;;;6.67;4.13;;;9.50;99.90;;;;;;5069803;28;20464;-72
2021/11/02 08:52:51;;;;;;;5.20;3.60;;;9.60;99.90;;;;;;5065870;28;20454;-71
2021/11/02 08:55:18;;;;;;;5.20;3.50;;;9.60;99.90;;;;;;5069235;28;20242;-72
2021/11/02 08:57:47;;;;;;;6.63;3.43;;;9.60;99.90;;;;;;5067106;28;20863;-72
2021/11/02 09:00:15;;;;;;;5.53;3.30;;;9.60;99.90;;;;;;5069465;28;20962;-72
2021/11/02 09:03:04;;;;;;;4.37;3.70;;;9.60;99.90;;;;;;5068791;28;20453;-73
2021/11/02 09:05:34;;;;;;;4.70;2.93;;;9.60;99.90;;;;;;5063486;28;20517;-72
2021/11/02 09:08:02;;;;;;;3.93;3.20;;;9.70;99.90;;;;;;5053431;28;20446;-72
2021/11/02 09:10:28;;;;;;;4.17;3.77;;;9.70;99.90;;;;;;5063573;28;20518;-72
2021/11/02 09:12:56;;;;;;;4.83;3.40;;;9.80;99.90;;;;;;5069440;28;20457;-72
2021/11/02 09:15:41;;;;;;;3.90;3.27;;;9.80;99.90;;;;;;5069948;28;20461;-73
2021/11/02 09:18:11;;;;;;;13.77;9.23;;;9.80;99.90;;;;;;5071337;28;20503;-71
2021/11/02 09:20:39;;;;;;;11.73;7.63;;;9.80;99.90;;;;;;5068399;28;20464;-72
2021/11/02 09:23:05;;;;;;;11.57;6.93;;;9.90;99.90;;;;;;5052573;28;20453;-72
2021/11/02 09:25:33;;;;;;;19.93;9.40;;;9.90;99.90;;;;;;5073987;28;20476;-72
2021/11/02 09:27:59;;;;;;;14.53;10.07;;;10.00;99.90;;;;;;5069631;28;20445;-72
2021/11/02 09:30:26;;;;;;;10.77;7.27;;;10.00;99.90;;;;;;5052296;28;20464;-71
2021/11/02 09:32:54;;;;;;;13.00;7.20;;;10.00;99.90;;;;;;5068495;28;20219;-72
2021/11/02 09:35:24;;;;;;;10.77;6.37;;;10.10;99.90;;;;;;5069344;28;20475;-73
2021/11/02 09:38:13;;;;;;;8.27;5.83;;;10.10;99.90;;;;;;5068654;28;20454;-72
2021/11/02 09:41:03;;;;;;;6.70;5.47;;;10.10;99.90;;;;;;5044006;28;20468;-72
2021/11/02 09:44:09;;;;;;;6.10;4.57;;;10.10;99.90;;;;;;5066993;28;20814;-72
2021/11/02 09:46:51;;;;;;;7.87;5.23;;;10.10;99.90;;;;;;5068723;28;20457;-73
2021/11/02 09:49:57;;;;;;;5.00;4.17;;;10.10;99.90;;;;;;5064512;28;20501;-72
2021/11/02 09:52:47;;;;;;;4.47;4.03;;;10.10;99.90;;;;;;5055770;28;20489;-72
2021/11/02 09:55:25;;;;;;;5.00;4.13;;;10.10;99.90;;;;;;5060669;28;20445;-73
2021/11/02 09:58:12;;;;;;;4.50;3.70;;;10.10;99.90;;;;;;5066915;28;20470;-72
2021/11/02 10:01:02;;;;;;;8.30;4.33;;;10.10;99.90;;;;;;5064876;28;20462;-71
2021/11/02 10:03:49;;;;;;;4.70;3.73;;;10.10;99.90;;;;;;5066525;28;21001;-72
2021/11/02 10:06:42;;;;;;;3.73;3.17;;;10.10;99.90;;;;;;5079738;28;20465;-72
2021/11/02 10:09:22;;;;;;;3.87;3.20;;;10.10;99.90;;;;;;5051447;28;20528;-71
2021/11/02 10:12:07;;;;;;;4.73;3.50;;;10.10;99.90;;;;;;5062695;28;20464;-71
2021/11/02 10:14:40;;;;;;;6.67;3.30;;;10.10;99.90;;;;;;5047633;28;20542;-72
2021/11/02 10:17:39;;;;;;;4.30;2.87;;;10.10;99.90;;;;;;5049914;28;20454;-73
2021/11/02 10:20:30;;;;;;;4.00;3.00;;;10.10;99.90;;;;;;5056533;28;20490;-73
2021/11/02 10:23:14;;;;;;;2.57;2.30;;;10.20;99.90;;;;;;5073236;28;20446;-72
2021/11/02 10:26:23;;;;;;;3.70;3.20;;;10.20;99.90;;;;;;5063519;28;20469;-73
2021/11/02 10:29:41;;;;;;;6.00;3.13;;;10.20;99.90;;;;;;5080402;28;20469;-73
2021/11/02 10:32:14;;;;;;;14.43;7.83;;;10.20;99.90;;;;;;5071399;28;20446;-72
2021/11/02 10:34:42;;;;;;;12.00;7.97;;;10.20;99.90;;;;;;5039178;28;20604;-73
2021/11/02 10:37:17;;;;;;;8.33;5.30;;;10.20;99.90;;;;;;5063889;28;20460;-72
2021/11/02 10:40:14;;;;;;;9.23;4.57;;;10.30;99.90;;;;;;5052994;28;20579;-72
2021/11/02 10:43:09;;;;;;;4.80;3.60;;;10.30;99.90;;;;;;5035044;28;20461;-73
2021/11/02 10:45:42;;;;;;;3.87;2.90;;;10.20;99.90;;;;;;5054093;28;20458;-71
2021/11/02 10:48:10;;;;;;;5.60;3.33;;;10.20;99.90;;;;;;5050021;28;20478;-73
2021/11/02 10:50:44;;;;;;;3.80;2.80;;;10.20;99.90;;;;;;5052231;28;20442;-72
2021/11/02 10:53:11;;;;;;;3.17;2.37;;;10.20;99.90;;;;;;5059664;28;20446;-73
2021/11/02 10:56:07;;;;;;;6.83;3.40;;;10.20;99.90;;;;;;5050521;28;20449;-71
2021/11/02 10:58:49;;;;;;;3.10;2.27;;;10.20;99.90;;;;;;5071273;28;20475;-72
2021/11/02 11:01:16;;;;;;;4.40;2.33;;;10.20;99.90;;;;;;5056284;28;20460;-73
2021/11/02 11:03:43;;;;;;;6.43;3.20;;;10.20;99.90;;;;;;5039011;28;20486;-73
2021/11/02 11:06:13;;;;;;;3.23;2.70;;;10.20;99.90;;;;;;5034660;28;20501;-73
2021/11/02 11:08:44;;;;;;;2.50;1.70;;;10.20;99.90;;;;;;5067963;28;20520;-72
2021/11/02 11:11:13;;;;;;;3.67;1.77;;;10.20;99.90;;;;;;5059431;28;20541;-73
2021/11/02 11:13:40;;;;;;;1.83;1.50;;;10.20;99.90;;;;;;5066533;28;20467;-72
2021/11/02 11:16:09;;;;;;;2.07;1.63;;;10.20;99.90;;;;;;5071962;28;20872;-72
2021/11/02 11:18:58;;;;;;;2.00;1.87;;;10.20;99.90;;;;;;5065811;28;20482;-73
2021/11/02 11:21:26;;;;;;;1.57;1.47;;;10.10;99.90;;;;;;5049448;28;20453;-74
2021/11/02 11:24:14;;;;;;;2.40;1.53;;;10.10;99.90;;;;;;5069362;28;20530;-73
2021/11/02 11:26:52;;;;;;;1.57;1.40;;;10.10;99.90;;;;;;5064961;28;20429;-72
2021/11/02 11:29:25;;;;;;;2.17;1.23;;;10.10;99.90;;;;;;5061175;28;20495;-73
2021/11/02 11:31:53;;;;;;;1.33;0.70;;;10.10;99.90;;;;;;5051177;28;20458;-72
2021/11/02 11:34:24;;;;;;;0.70;0.60;;;10.00;99.90;;;;;;5049574;28;20474;-73
2021/11/02 11:36:57;;;;;;;1.07;0.80;;;10.00;99.90;;;;;;5073985;28;20453;-73
2021/11/02 11:39:26;;;;;;;0.93;0.83;;;9.90;99.90;;;;;;5051420;28;20480;-73
2021/11/02 11:41:54;;;;;;;1.00;0.63;;;9.90;99.90;;;;;;5068945;28;20465;-72
2021/11/02 11:44:21;;;;;;;0.60;0.57;;;9.80;99.90;;;;;;5056908;28;20591;-73
2021/11/02 11:47:01;;;;;;;2.50;0.90;;;9.80;99.90;;;;;;5081994;28;20458;-72
2021/11/02 11:49:28;;;;;;;1.10;0.60;;;9.80;99.90;;;;;;5059869;28;20462;-73
2021/11/02 11:51:58;;;;;;;1.70;1.07;;;9.90;99.90;;;;;;5066418;28;20488;-72
2021/11/02 11:55:10;;;;;;;1.63;0.70;;;9.90;99.90;;;;;;5067699;28;20507;-73
2021/11/02 11:57:38;;;;;;;1.73;1.00;;;9.90;99.90;;;;;;5040848;28;20485;-73
2021/11/02 12:00:07;;;;;;;0.83;0.70;;;9.90;99.90;;;;;;5045124;28;20845;-73
2021/11/02 12:03:08;;;;;;;2.43;1.07;;;9.90;99.90;;;;;;5059120;28;20527;-73
2021/11/02 12:05:43;;;;;;;1.90;1.13;;;9.90;99.90;;;;;;5057214;28;21058;-72
2021/11/02 12:08:40;;;;;;;2.00;1.40;;;10.00;99.90;;;;;;5056880;28;20466;-72
2021/11/02 12:11:07;;;;;;;3.67;1.07;;;10.00;99.90;;;;;;5048190;28;20483;-72
2021/11/02 12:13:39;;;;;;;0.70;0.70;;;9.90;99.90;;;;;;5036522;28;20453;-72
2021/11/02 12:16:19;;;;;;;1.17;0.93;;;9.90;99.90;;;;;;5061002;28;20481;-73
2021/11/02 12:18:49;;;;;;;0.87;0.80;;;9.90;99.90;;;;;;5067482;28;20505;-73
2021/11/02 12:21:19;;;;;;;0.97;0.67;;;10.00;99.90;;;;;;5062142;28;20489;-73
2021/11/02 12:23:51;;;;;;;0.80;0.80;;;10.00;99.90;;;;;;5040558;28;20457;-72
2021/11/02 12:26:17;;;;;;;1.00;0.90;;;10.00;99.90;;;;;;5052340;28;20885;-73
2021/11/02 12:28:47;;;;;;;2.13;1.03;;;10.00;99.90;;;;;;5061615;28;21010;-71
2021/11/02 12:31:16;;;;;;;2.33;1.00;;;10.00;99.90;;;;;;5035039;28;20458;-72
2021/11/02 12:33:51;;;;;;;0.80;0.80;;;10.00;99.90;;;;;;5057383;28;20553;-72
2021/11/02 12:36:21;;;;;;;0.73;0.73;;;10.00;99.90;;;;;;5068508;28;20468;-72
2021/11/02 12:38:48;;;;;;;0.67;0.67;;;10.00;99.90;;;;;;5066875;28;20495;-73
2021/11/02 12:41:21;;;;;;;0.90;0.80;;;10.00;99.90;;;;;;5059506;28;20998;-73
2021/11/02 12:44:06;;;;;;;1.30;1.20;;;10.00;99.90;;;;;;5039325;28;20458;-72
2021/11/02 12:46:33;;;;;;;0.90;0.90;;;10.00;99.90;;;;;;5041169;28;20472;-72
2021/11/02 12:49:01;;;;;;;1.10;1.00;;;10.00;99.90;;;;;;5072309;28;20460;-73
2021/11/02 12:51:32;;;;;;;1.17;0.90;;;10.00;99.90;;;;;;5060128;28;20454;-72
2021/11/02 12:54:02;;;;;;;1.20;1.10;;;10.00;99.90;;;;;;5067579;28;20457;-73
2021/11/02 12:56:33;;;;;;;0.80;0.70;;;9.90;99.90;;;;;;5061576;28;20462;-73
2021/11/02 12:59:09;;;;;;;1.40;1.30;;;10.00;99.90;;;;;;5057691;28;20466;-73
2021/11/02 13:01:38;;;;;;;12.03;9.43;;;10.00;99.90;;;;;;5068747;28;20454;-72
2021/11/02 13:04:08;;;;;;;13.00;9.30;;;10.00;99.90;;;;;;5069654;28;20450;-73
2021/11/02 13:06:48;;;;;;;14.23;10.23;;;10.00;99.90;;;;;;5058216;28;20523;-72
2021/11/02 13:09:21;;;;;;;33.17;19.07;;;10.00;99.90;;;;;;5052899;28;20542;-75
2021/11/02 13:11:59;;;;;;;25.90;18.03;;;10.00;99.90;;;;;;5049393;28;20600;-71
2021/11/02 13:14:45;;;;;;;6.50;5.40;;;10.00;99.90;;;;;;5031998;28;20861;-72
2021/11/02 13:17:13;;;;;;;9.57;5.67;;;9.90;99.90;;;;;;5061273;28;20469;-72
2021/11/02 13:19:48;;;;;;;8.23;5.67;;;9.90;99.90;;;;;;5070136;28;20599;-72
2021/11/02 13:22:16;;;;;;;2.60;2.33;;;9.90;99.90;;;;;;5052862;28;20480;-73
2021/11/02 13:24:57;;;;;;;4.33;2.77;;;9.90;99.90;;;;;;5060594;28;20461;-73
2021/11/02 13:27:30;;;;;;;2.23;2.03;;;9.90;99.90;;;;;;5029437;28;20561;-73
2021/11/02 13:30:16;;;;;;;1.93;1.80;;;9.90;99.90;;;;;;5051529;28;21039;-72
2021/11/02 13:33:12;;;;;;;1.93;1.70;;;9.90;99.90;;;;;;5060221;28;20502;-73
2021/11/02 13:35:47;;;;;;;1.30;1.20;;;9.90;99.90;;;;;;5061727;28;20457;-70
2021/11/02 13:38:25;;;;;;;1.40;1.30;;;10.00;99.90;;;;;;5061498;28;20470;-73
2021/11/02 13:40:54;;;;;;;1.20;1.10;;;10.00;99.90;;;;;;5050237;28;20797;-72
2021/11/02 13:43:35;;;;;;;3.40;1.00;;;10.00;99.90;;;;;;5029287;28;20896;-73
2021/11/02 13:46:02;;;;;;;1.40;1.10;;;9.90;99.90;;;;;;5047332;28;20485;-73
2021/11/02 13:48:30;;;;;;;1.10;1.00;;;9.90;99.90;;;;;;5056373;28;20474;-72
2021/11/02 13:50:57;;;;;;;0.70;0.70;;;9.90;99.90;;;;;;5083367;28;20522;-73
2021/11/02 13:53:23;;;;;;;1.13;0.77;;;9.90;99.90;;;;;;5059091;28;20513;-74
2021/11/02 13:55:50;;;;;;;0.87;0.80;;;9.90;99.90;;;;;;5065474;28;20453;-72
2021/11/02 13:58:16;;;;;;;15.80;8.70;;;9.90;99.90;;;;;;5068920;28;20473;-73
2021/11/02 14:00:42;;;;;;;54.47;27.93;;;9.90;99.90;;;;;;5059714;28;20478;-73
2021/11/02 14:03:28;;;;;;;30.30;19.43;;;9.90;99.90;;;;;;5056135;28;20243;-72
2021/11/02 14:05:57;;;;;;;24.40;13.77;;;9.90;99.90;;;;;;5048472;28;20521;-74
2021/11/02 14:08:23;;;;;;;11.83;8.23;;;9.90;99.90;;;;;;5027020;28;20572;-72
2021/11/02 14:10:54;;;;;;;7.80;5.53;;;9.90;99.90;;;;;;5060045;28;20533;-73
2021/11/02 14:13:39;;;;;;;35.10;17.90;;;9.90;99.90;;;;;;5051765;28;20991;-73
2021/11/02 14:16:08;;;;;;;29.00;15.43;;;9.80;99.90;;;;;;5085427;28;20445;-72
2021/11/02 14:18:35;;;;;;;45.07;25.93;;;9.80;99.90;;;;;;5059045;28;20467;-73
2021/11/02 14:21:01;;;;;;;94.57;54.27;;;9.80;99.90;;;;;;5067100;28;20461;-73
2021/11/02 14:23:29;;;;;;;45.17;30.50;;;9.80;99.90;;;;;;5040471;28;20676;-73
2021/11/02 14:26:25;;;;;;;22.43;13.40;;;9.80;99.90;;;;;;5054951;28;20466;-73
2021/11/02 14:29:06;;;;;;;45.53;29.00;;;9.80;99.90;;;;;;5037712;28;20464;-72
2021/11/02 14:31:34;;;;;;;16.07;9.70;;;9.90;99.90;;;;;;5045833;28;20450;-72
2021/11/02 14:34:01;;;;;;;6.70;5.10;;;9.80;99.90;;;;;;5048214;28;20537;-73
2021/11/02 14:36:39;;;;;;;2.70;2.20;;;9.80;99.90;;;;;;5047867;28;20526;-73
2021/11/02 14:39:11;;;;;;;1.10;1.00;;;9.80;99.90;;;;;;5033436;28;20487;-74
2021/11/02 14:41:44;;;;;;;0.90;0.90;;;9.90;99.90;;;;;;5065024;28;20450;-72
2021/11/02 14:44:27;;;;;;;7.30;1.13;;;9.90;99.90;;;;;;5056717;28;20542;-72
2021/11/02 14:46:58;;;;;;;0.87;0.70;;;9.90;99.90;;;;;;5055568;28;20477;-73
2021/11/02 14:49:30;;;;;;;0.80;0.70;;;9.90;99.90;;;;;;5044468;28;20460;-73
2021/11/02 14:52:02;;;;;;;1.40;1.30;;;9.90;99.90;;;;;;5069641;28;20458;-73
2021/11/02 14:54:34;;;;;;;1.07;0.97;;;9.90;99.90;;;;;;5069269;28;20453;-73
2021/11/02 14:57:20;;;;;;;0.60;0.60;;;9.90;99.90;;;;;;5039434;28;20461;-73
2021/11/02 14:59:54;;;;;;;0.83;0.83;;;9.90;99.90;;;;;;5040511;28;20453;-73
2021/11/02 15:02:36;;;;;;;1.20;1.20;;;9.90;99.90;;;;;;5036069;28;20460;-73
2021/11/02 15:05:06;;;;;;;1.50;1.40;;;10.00;99.90;;;;;;5065999;28;20469;-72
2021/11/02 15:07:36;;;;;;;0.97;0.97;;;9.90;99.90;;;;;;5039266;28;20482;-72
2021/11/02 15:10:08;;;;;;;1.00;1.00;;;9.90;99.90;;;;;;5055056;28;20455;-72
2021/11/02 15:12:35;;;;;;;1.20;1.10;;;10.00;99.90;;;;;;5066263;28;20494;-73
2021/11/02 15:15:02;;;;;;;0.67;0.67;;;10.00;99.90;;;;;;5066884;28;20453;-72
2021/11/02 15:17:28;;;;;;;2.50;1.03;;;10.00;99.90;;;;;;5039897;28;20470;-73
2021/11/02 15:19:54;;;;;;;0.83;0.83;;;10.00;99.90;;;;;;5059058;28;20526;-73
2021/11/02 15:22:22;;;;;;;1.40;1.30;;;10.10;99.90;;;;;;5054965;28;20548;-72
2021/11/02 15:24:56;;;;;;;1.10;1.10;;;10.10;99.90;;;;;;5058003;28;20573;-73
2021/11/02 15:27:26;;;;;;;1.40;1.30;;;10.10;99.90;;;;;;5033870;28;20458;-72
2021/11/02 15:30:13;;;;;;;4.60;2.90;;;10.10;99.90;;;;;;5058416;28;20986;-72
2021/11/02 15:32:46;;;;;;;15.33;8.67;;;10.10;99.90;;;;;;5063044;28;20468;-71
2021/11/02 15:35:15;;;;;;;19.90;14.13;;;10.10;99.90;;;;;;5060373;28;20477;-72
2021/11/02 15:37:52;;;;;;;9.60;6.30;;;10.10;99.90;;;;;;5059059;28;20907;-73
2021/11/02 15:40:20;;;;;;;6.50;4.97;;;10.10;99.90;;;;;;5049817;28;20489;-73
2021/11/02 15:42:50;;;;;;;11.17;6.73;;;10.10;99.90;;;;;;5070237;28;20453;-73
2021/11/02 15:45:30;;;;;;;14.67;9.63;;;10.10;99.90;;;;;;5059756;28;20507;-74
2021/11/02 15:48:03;;;;;;;11.63;7.90;;;10.10;99.90;;;;;;5069372;28;20477;-73
2021/11/02 15:50:29;;;;;;;39.07;24.47;;;10.10;99.90;;;;;;5059275;28;20471;-73
2021/11/02 15:53:01;;;;;;;46.60;30.20;;;10.10;99.90;;;;;;5072186;28;20455;-72
2021/11/02 15:55:28;;;;;;;32.07;19.10;;;10.10;99.90;;;;;;5059923;28;20470;-72
2021/11/02 15:58:06;;;;;;;64.37;33.10;;;10.10;99.90;;;;;;5049074;28;20482;-72
2021/11/02 16:00:39;;;;;;;34.87;22.43;;;10.10;99.90;;;;;;5069978;28;20468;-72
2021/11/02 16:03:06;;;;;;;24.80;15.90;;;10.10;99.90;;;;;;5060567;28;20465;-73
2021/11/02 16:05:33;;;;;;;22.17;14.20;;;10.10;99.90;;;;;;5076098;28;20466;-72
2021/11/02 16:08:22;;;;;;;20.90;11.80;;;10.10;99.90;;;;;;5055581;28;21050;-74
2021/11/02 16:11:06;;;;;;;18.67;11.77;;;10.10;99.90;;;;;;5048296;28;20462;-72
2021/11/02 16:13:32;;;;;;;19.67;10.60;;;10.10;99.90;;;;;;5046590;28;20535;-73
2021/11/02 16:15:59;;;;;;;21.80;11.00;;;10.10;99.90;;;;;;5061221;28;20465;-73
2021/11/02 16:18:28;;;;;;;19.57;12.43;;;10.10;99.90;;;;;;5047755;28;20259;-72
2021/11/02 16:20:57;;;;;;;22.17;14.33;;;10.20;99.90;;;;;;5048530;28;20447;-73
2021/11/02 16:23:26;;;;;;;35.17;18.50;;;10.10;99.90;;;;;;5057744;28;20881;-73
2021/11/02 16:25:58;;;;;;;38.20;23.13;;;10.10;99.90;;;;;;5033154;28;20889;-73
2021/11/02 16:28:33;;;;;;;74.50;38.07;;;10.10;99.90;;;;;;5055773;28;20474;-73
2021/11/02 16:31:08;;;;;;;27.20;16.30;;;10.10;99.90;;;;;;5039636;28;20511;-73
2021/11/02 16:33:46;;;;;;;5.60;3.60;;;10.10;99.90;;;;;;5031467;28;20480;-74
2021/11/02 16:36:21;;;;;;;5.43;4.00;;;10.10;99.90;;;;;;5055591;28;20842;-73
2021/11/02 16:38:47;;;;;;;10.80;6.97;;;10.10;99.90;;;;;;5042459;28;20482;-74
2021/11/02 16:41:28;;;;;;;11.97;6.00;;;10.10;99.90;;;;;;5033249;28;20546;-73
2021/11/02 16:43:56;;;;;;;7.03;5.10;;;10.10;99.90;;;;;;5061707;28;20449;-74
2021/11/02 16:46:26;;;;;;;14.70;8.77;;;10.10;99.90;;;;;;5047039;28;21024;-72
2021/11/02 16:49:08;;;;;;;25.23;10.97;;;10.10;99.90;;;;;;5047769;28;20498;-72
2021/11/02 16:51:55;;;;;;;20.57;11.60;;;10.10;99.90;;;;;;5049482;28;20583;-72
2021/11/02 16:54:22;;;;;;;13.27;8.20;;;10.10;99.90;;;;;;5027803;28;20471;-72
2021/11/02 16:57:16;;;;;;;9.37;6.23;;;10.00;99.90;;;;;;5039740;28;21037;-73
2021/11/02 17:00:01;;;;;;;7.30;4.83;;;10.00;99.90;;;;;;5053612;28;20466;-73
2021/11/02 17:02:28;;;;;;;6.20;4.77;;;10.00;99.90;;;;;;5053219;28;20476;-74
2021/11/02 17:05:01;;;;;;;4.17;3.73;;;10.00;99.90;;;;;;5067362;28;20457;-72
2021/11/02 17:07:44;;;;;;;3.53;3.23;;;10.00;99.90;;;;;;5059844;28;20475;-72
2021/11/02 17:10:25;;;;;;;3.43;3.13;;;10.00;99.90;;;;;;5056217;28;20855;-72
2021/11/02 17:12:55;;;;;;;4.03;3.47;;;9.90;99.90;;;;;;5046943;28;20466;-71
2021/11/02 17:15:23;;;;;;;2.57;2.37;;;9.90;99.90;;;;;;5046136;28;20520;-72
2021/11/02 17:17:51;;;;;;;3.33;3.03;;;9.80;99.90;;;;;;5055395;28;20524;-72
2021/11/02 17:20:17;;;;;;;8.00;4.67;;;9.80;99.90;;;;;;5052921;28;20943;-72
2021/11/02 17:22:46;;;;;;;3.63;2.83;;;9.80;99.90;;;;;;5056369;28;20438;-73
2021/11/02 17:25:13;;;;;;;3.40;2.00;;;9.70;99.90;;;;;;5055424;28;20473;-73
2021/11/02 17:27:40;;;;;;;4.67;3.07;;;9.70;99.90;;;;;;5062209;28;20458;-72
2021/11/02 17:30:06;;;;;;;5.10;3.70;;;9.60;99.90;;;;;;5071002;28;20469;-73
2021/11/02 17:32:32;;;;;;;5.83;3.90;;;9.60;99.90;;;;;;5060358;28;20471;-71
2021/11/02 17:35:01;;;;;;;3.93;3.10;;;9.60;99.90;;;;;;5058771;28;20526;-72
2021/11/02 17:37:30;;;;;;;3.50;2.87;;;9.70;99.90;;;;;;5056791;28;20525;-73
2021/11/02 17:39:57;;;;;;;3.20;2.90;;;9.60;99.90;;;;;;5046701;28;20523;-73
2021/11/02 17:42:23;;;;;;;3.00;2.80;;;9.60;99.90;;;;;;5042143;28;20465;-73
2021/11/02 17:44:49;;;;;;;2.93;2.73;;;9.60;99.90;;;;;;5046344;28;20465;-74
2021/11/02 17:47:15;;;;;;;5.57;2.50;;;9.60;99.90;;;;;;5046713;28;20285;-74
2021/11/02 17:49:41;;;;;;;9.70;6.40;;;9.60;99.90;;;;;;5061510;28;20624;-73
2021/11/02 17:52:09;;;;;;;10.20;6.67;;;9.60;99.90;;;;;;5040768;28;20451;-72
2021/11/02 17:54:37;;;;;;;9.33;6.10;;;9.60;99.90;;;;;;5044314;28;20871;-72
2021/11/02 17:57:04;;;;;;;9.10;6.23;;;9.60;99.90;;;;;;5040393;28;20534;-73
2021/11/02 17:59:30;;;;;;;11.77;8.30;;;9.60;99.90;;;;;;5039134;28;20499;-73
2021/11/02 18:01:58;;;;;;;18.93;13.17;;;9.50;99.90;;;;;;5046792;28;20532;-73
2021/11/02 18:04:25;;;;;;;17.23;13.93;;;9.50;99.90;;;;;;5044816;28;20760;-73
2021/11/02 18:06:51;;;;;;;13.40;9.83;;;9.50;99.90;;;;;;5058964;28;20446;-72
2021/11/02 18:09:17;;;;;;;12.83;8.03;;;9.50;99.90;;;;;;5066833;28;20461;-73
2021/11/02 18:11:43;;;;;;;14.90;9.87;;;9.50;99.90;;;;;;5065466;28;20284;-72
2021/11/02 18:14:10;;;;;;;32.00;17.80;;;9.50;99.90;;;;;;5066513;28;20294;-73